sensor_id;sensor_type;location;lat;lon;timestamp;temperature;humidity
54680;DHT22;40578;53.178;5.846;2022-08-27T00:00:39;13.70;1.00
54680;DHT22;40578;53.178;5.846;2022-08-27T00:03:05;13.60;1.00
54680;DHT22;40578;53.178;5.846;2022-08-27T00:05:30;13.60;1.00
54680;DHT22;40578;53.178;5.846;2022-08-27T00:07:56;13.60;57.50
54680;DHT22;40578;53.178;5.846;2022-08-27T00:10:25;13.50;99.90
54680;DHT22;40578;53.178;5.846;2022-08-27T00:12:52;13.40;99.90
54680;DHT22;40578;53.178;5.846;2022-08-27T00:15:20;13.40;99.90
54680;DHT22;40578;53.178;5.846;2022-08-27T00:17:47;13.40;99.90
54680;DHT22;40578;53.178;5.846;2022-08-27T00:20:16;13.30;99.90
54680;DHT22;40578;53.178;5.846;2022-08-27T00:22:42;13.30;1.00
54680;DHT22;40578;53.178;5.846;2022-08-27T00:25:09;13.30;1.00
54680;DHT22;40578;53.178;5.846;2022-08-27T00:27:36;13.30;1.00
54680;DHT22;40578;53.178;5.846;2022-08-27T00:30:05;13.20;16.90
54680;DHT22;40578;53.178;5.846;2022-08-27T00:32:31;13.20;43.30
54680;DHT22;40578;53.178;5.846;2022-08-27T00:34:57;13.20;72.90
54680;DHT22;40578;53.178;5.846;2022-08-27T00:37:23;13.30;99.70
54680;DHT22;40578;53.178;5.846;2022-08-27T00:39:48;13.30;99.90
54680;DHT22;40578;53.178;5.846;2022-08-27T00:42:14;13.20;99.90
54680;DHT22;40578;53.178;5.846;2022-08-27T00:44:40;13.50;99.90
54680;DHT22;40578;53.178;5.846;2022-08-27T00:47:11;13.30;99.90
54680;DHT22;40578;53.178;5.846;2022-08-27T00:49:43;13.30;99.90
54680;DHT22;40578;53.178;5.846;2022-08-27T00:52:21;13.60;76.20
54680;DHT22;40578;53.178;5.846;2022-08-27T00:54:51;13.50;50.80
54680;DHT22;40578;53.178;5.846;2022-08-27T00:57:18;13.60;48.50
54680;DHT22;40578;53.178;5.846;2022-08-27T00:59:44;13.60;79.30
54680;DHT22;40578;53.178;5.846;2022-08-27T01:02:11;13.70;38.80
54680;DHT22;40578;53.178;5.846;2022-08-27T01:05:07;13.80;95.40
54680;DHT22;40578;53.178;5.846;2022-08-27T01:07:34;13.90;99.90
54680;DHT22;40578;53.178;5.846;2022-08-27T01:10:02;13.90;99.90
54680;DHT22;40578;53.178;5.846;2022-08-27T01:12:31;13.90;92.80
54680;DHT22;40578;53.178;5.846;2022-08-27T01:14:58;13.80;38.50
54680;DHT22;40578;53.178;5.846;2022-08-27T01:17:25;13.90;1.00
54680;DHT22;40578;53.178;5.846;2022-08-27T01:20:00;14.00;1.00
54680;DHT22;40578;53.178;5.846;2022-08-27T01:22:55;14.00;99.90
54680;DHT22;40578;53.178;5.846;2022-08-27T01:25:22;13.90;99.90
54680;DHT22;40578;53.178;5.846;2022-08-27T01:27:49;13.90;36.00
54680;DHT22;40578;53.178;5.846;2022-08-27T01:30:18;13.80;1.00
54680;DHT22;40578;53.178;5.846;2022-08-27T01:32:45;13.80;1.00
54680;DHT22;40578;53.178;5.846;2022-08-27T01:35:13;13.70;1.00
54680;DHT22;40578;53.178;5.846;2022-08-27T01:37:40;13.70;1.00
54680;DHT22;40578;53.178;5.846;2022-08-27T01:40:07;13.60;1.00
54680;DHT22;40578;53.178;5.846;2022-08-27T01:42:40;13.60;1.00
54680;DHT22;40578;53.178;5.846;2022-08-27T01:45:12;13.70;1.00
54680;DHT22;40578;53.178;5.846;2022-08-27T01:47:38;13.60;1.00
54680;DHT22;40578;53.178;5.846;2022-08-27T01:50:14;13.60;8.10
54680;DHT22;40578;53.178;5.846;2022-08-27T01:52:40;13.60;99.90
54680;DHT22;40578;53.178;5.846;2022-08-27T01:55:08;13.60;99.90
54680;DHT22;40578;53.178;5.846;2022-08-27T01:57:34;13.60;99.90
54680;DHT22;40578;53.178;5.846;2022-08-27T02:00:05;13.70;99.90
54680;DHT22;40578;53.178;5.846;2022-08-27T02:02:32;13.80;99.90
54680;DHT22;40578;53.178;5.846;2022-08-27T02:04:57;14.40;1.00
54680;DHT22;40578;53.178;5.846;2022-08-27T02:07:23;14.00;1.00
54680;DHT22;40578;53.178;5.846;2022-08-27T02:09:49;14.00;1.00
54680;DHT22;40578;53.178;5.846;2022-08-27T02:12:15;14.00;1.00
54680;DHT22;40578;53.178;5.846;2022-08-27T02:14:40;14.30;1.00
54680;DHT22;40578;53.178;5.846;2022-08-27T02:17:06;14.10;44.50
54680;DHT22;40578;53.178;5.846;2022-08-27T02:19:31;14.00;39.10
54680;DHT22;40578;53.178;5.846;2022-08-27T02:21:57;14.10;66.90
54680;DHT22;40578;53.178;5.846;2022-08-27T02:24:26;14.10;61.20
54680;DHT22;40578;53.178;5.846;2022-08-27T02:26:53;14.20;73.60
54680;DHT22;40578;53.178;5.846;2022-08-27T02:29:20;14.10;51.90
54680;DHT22;40578;53.178;5.846;2022-08-27T02:31:45;14.20;94.60
54680;DHT22;40578;53.178;5.846;2022-08-27T02:34:11;14.20;97.60
54680;DHT22;40578;53.178;5.846;2022-08-27T02:36:37;14.20;71.50
54680;DHT22;40578;53.178;5.846;2022-08-27T02:39:04;14.30;31.70
54680;DHT22;40578;53.178;5.846;2022-08-27T02:41:30;14.40;18.60
54680;DHT22;40578;53.178;5.846;2022-08-27T02:43:56;14.40;1.00
54680;DHT22;40578;53.178;5.846;2022-08-27T02:46:21;14.40;1.00
54680;DHT22;40578;53.178;5.846;2022-08-27T02:48:47;14.50;1.00
54680;DHT22;40578;53.178;5.846;2022-08-27T02:51:13;14.60;1.00
54680;DHT22;40578;53.178;5.846;2022-08-27T02:53:38;14.60;99.90
54680;DHT22;40578;53.178;5.846;2022-08-27T02:56:05;14.60;99.90
54680;DHT22;40578;53.178;5.846;2022-08-27T02:58:31;14.70;99.90
54680;DHT22;40578;53.178;5.846;2022-08-27T03:00:59;14.70;99.90
54680;DHT22;40578;53.178;5.846;2022-08-27T03:03:26;14.80;23.20
54680;DHT22;40578;53.178;5.846;2022-08-27T03:05:52;14.80;1.00
54680;DHT22;40578;53.178;5.846;2022-08-27T03:08:18;14.80;1.00
54680;DHT22;40578;53.178;5.846;2022-08-27T03:10:44;14.80;99.90
54680;DHT22;40578;53.178;5.846;2022-08-27T03:13:10;14.70;99.90
54680;DHT22;40578;53.178;5.846;2022-08-27T03:15:36;14.70;99.90
54680;DHT22;40578;53.178;5.846;2022-08-27T03:18:01;14.90;99.90
54680;DHT22;40578;53.178;5.846;2022-08-27T03:20:50;14.70;79.80
54680;DHT22;40578;53.178;5.846;2022-08-27T03:23:18;14.70;19.40
54680;DHT22;40578;53.178;5.846;2022-08-27T03:25:47;14.70;1.00
54680;DHT22;40578;53.178;5.846;2022-08-27T03:28:15;14.70;1.00
54680;DHT22;40578;53.178;5.846;2022-08-27T03:30:41;14.70;1.00
54680;DHT22;40578;53.178;5.846;2022-08-27T03:33:10;14.60;14.10
54680;DHT22;40578;53.178;5.846;2022-08-27T03:35:36;14.60;43.00
54680;DHT22;40578;53.178;5.846;2022-08-27T03:38:02;14.50;99.90
54680;DHT22;40578;53.178;5.846;2022-08-27T03:40:28;14.50;99.90
54680;DHT22;40578;53.178;5.846;2022-08-27T03:42:53;14.40;99.90
54680;DHT22;40578;53.178;5.846;2022-08-27T03:45:19;14.40;99.90
54680;DHT22;40578;53.178;5.846;2022-08-27T03:47:45;14.40;99.90
54680;DHT22;40578;53.178;5.846;2022-08-27T03:50:11;14.30;99.90
54680;DHT22;40578;53.178;5.846;2022-08-27T03:52:38;14.30;1.00
54680;DHT22;40578;53.178;5.846;2022-08-27T03:55:05;14.30;1.00
54680;DHT22;40578;53.178;5.846;2022-08-27T03:57:32;14.30;1.00
54680;DHT22;40578;53.178;5.846;2022-08-27T03:59:58;14.10;9.80
54680;DHT22;40578;53.178;5.846;2022-08-27T04:02:25;14.40;1.00
54680;DHT22;40578;53.178;5.846;2022-08-27T04:04:51;14.20;1.00
54680;DHT22;40578;53.178;5.846;2022-08-27T04:07:17;14.20;1.00
54680;DHT22;40578;53.178;5.846;2022-08-27T04:09:43;14.20;1.00
54680;DHT22;40578;53.178;5.846;2022-08-27T04:12:09;14.20;99.90
54680;DHT22;40578;53.178;5.846;2022-08-27T04:14:36;14.20;99.90
54680;DHT22;40578;53.178;5.846;2022-08-27T04:17:02;14.20;99.90
54680;DHT22;40578;53.178;5.846;2022-08-27T04:19:28;14.20;99.90
54680;DHT22;40578;53.178;5.846;2022-08-27T04:22:04;14.30;99.90
54680;DHT22;40578;53.178;5.846;2022-08-27T04:24:32;14.40;99.90
54680;DHT22;40578;53.178;5.846;2022-08-27T04:26:59;14.40;99.90
54680;DHT22;40578;53.178;5.846;2022-08-27T04:29:26;14.40;99.90
54680;DHT22;40578;53.178;5.846;2022-08-27T04:31:51;14.40;99.90
54680;DHT22;40578;53.178;5.846;2022-08-27T04:34:18;14.40;99.60
54680;DHT22;40578;53.178;5.846;2022-08-27T04:36:44;14.40;99.90
54680;DHT22;40578;53.178;5.846;2022-08-27T04:39:11;14.60;99.90
54680;DHT22;40578;53.178;5.846;2022-08-27T04:41:37;14.50;99.90
54680;DHT22;40578;53.178;5.846;2022-08-27T04:44:05;14.50;99.90
54680;DHT22;40578;53.178;5.846;2022-08-27T04:46:34;14.60;99.90
54680;DHT22;40578;53.178;5.846;2022-08-27T04:49:04;14.60;99.90
54680;DHT22;40578;53.178;5.846;2022-08-27T04:51:29;14.60;99.90
54680;DHT22;40578;53.178;5.846;2022-08-27T04:53:56;14.60;99.90
54680;DHT22;40578;53.178;5.846;2022-08-27T04:56:22;14.60;99.90
54680;DHT22;40578;53.178;5.846;2022-08-27T04:58:49;14.70;99.90
54680;DHT22;40578;53.178;5.846;2022-08-27T05:01:26;14.80;99.90
54680;DHT22;40578;53.178;5.846;2022-08-27T05:03:52;14.80;99.90
54680;DHT22;40578;53.178;5.846;2022-08-27T05:06:20;14.80;95.80
54680;DHT22;40578;53.178;5.846;2022-08-27T05:08:48;14.90;65.30
54680;DHT22;40578;53.178;5.846;2022-08-27T05:11:16;14.90;14.00
54680;DHT22;40578;53.178;5.846;2022-08-27T05:13:43;15.00;1.00
54680;DHT22;40578;53.178;5.846;2022-08-27T05:16:12;15.10;1.00
54680;DHT22;40578;53.178;5.846;2022-08-27T05:18:39;15.10;1.00
54680;DHT22;40578;53.178;5.846;2022-08-27T05:21:07;15.20;1.00
54680;DHT22;40578;53.178;5.846;2022-08-27T05:23:35;15.20;99.90
54680;DHT22;40578;53.178;5.846;2022-08-27T05:26:01;15.30;99.90
54680;DHT22;40578;53.178;5.846;2022-08-27T05:28:28;15.40;99.90
54680;DHT22;40578;53.178;5.846;2022-08-27T05:31:01;15.40;99.90
54680;DHT22;40578;53.178;5.846;2022-08-27T05:33:27;15.50;99.90
54680;DHT22;40578;53.178;5.846;2022-08-27T05:35:56;15.50;99.90
54680;DHT22;40578;53.178;5.846;2022-08-27T05:38:23;15.60;99.90
54680;DHT22;40578;53.178;5.846;2022-08-27T05:41:08;15.60;99.90
54680;DHT22;40578;53.178;5.846;2022-08-27T05:43:35;15.60;99.90
54680;DHT22;40578;53.178;5.846;2022-08-27T05:46:08;15.70;99.90
54680;DHT22;40578;53.178;5.846;2022-08-27T05:48:35;15.70;99.90
54680;DHT22;40578;53.178;5.846;2022-08-27T05:51:16;15.70;99.90
54680;DHT22;40578;53.178;5.846;2022-08-27T05:53:42;15.70;99.90
54680;DHT22;40578;53.178;5.846;2022-08-27T05:56:28;15.80;99.90
54680;DHT22;40578;53.178;5.846;2022-08-27T05:58:54;15.80;99.90
54680;DHT22;40578;53.178;5.846;2022-08-27T06:01:46;15.80;99.90
54680;DHT22;40578;53.178;5.846;2022-08-27T06:04:13;15.90;99.90
54680;DHT22;40578;53.178;5.846;2022-08-27T06:06:41;15.90;99.90
54680;DHT22;40578;53.178;5.846;2022-08-27T06:09:08;15.90;99.90
54680;DHT22;40578;53.178;5.846;2022-08-27T06:11:34;16.00;99.90
54680;DHT22;40578;53.178;5.846;2022-08-27T06:14:00;16.00;99.90
54680;DHT22;40578;53.178;5.846;2022-08-27T06:16:26;16.00;99.90
54680;DHT22;40578;53.178;5.846;2022-08-27T06:18:53;16.10;99.90
54680;DHT22;40578;53.178;5.846;2022-08-27T06:21:19;16.10;99.90
54680;DHT22;40578;53.178;5.846;2022-08-27T06:23:46;16.00;99.90
54680;DHT22;40578;53.178;5.846;2022-08-27T06:26:14;16.10;99.90
54680;DHT22;40578;53.178;5.846;2022-08-27T06:28:40;16.10;99.90
54680;DHT22;40578;53.178;5.846;2022-08-27T06:31:08;16.20;99.90
54680;DHT22;40578;53.178;5.846;2022-08-27T06:33:34;16.20;99.90
54680;DHT22;40578;53.178;5.846;2022-08-27T06:36:01;16.20;99.90
54680;DHT22;40578;53.178;5.846;2022-08-27T06:38:27;16.30;99.90
54680;DHT22;40578;53.178;5.846;2022-08-27T06:40:53;16.40;99.90
54680;DHT22;40578;53.178;5.846;2022-08-27T06:43:21;16.40;99.90
54680;DHT22;40578;53.178;5.846;2022-08-27T06:45:47;16.50;99.90
54680;DHT22;40578;53.178;5.846;2022-08-27T06:48:13;16.60;99.90
54680;DHT22;40578;53.178;5.846;2022-08-27T06:50:41;16.80;39.90
54680;DHT22;40578;53.178;5.846;2022-08-27T06:53:07;16.80;1.00
54680;DHT22;40578;53.178;5.846;2022-08-27T06:55:48;16.90;1.00
54680;DHT22;40578;53.178;5.846;2022-08-27T06:58:15;17.00;99.90
54680;DHT22;40578;53.178;5.846;2022-08-27T07:00:41;17.00;99.90
54680;DHT22;40578;53.178;5.846;2022-08-27T07:03:08;17.10;99.90
54680;DHT22;40578;53.178;5.846;2022-08-27T07:05:36;17.10;99.90
54680;DHT22;40578;53.178;5.846;2022-08-27T07:08:02;17.10;99.90
54680;DHT22;40578;53.178;5.846;2022-08-27T07:10:29;17.20;99.90
54680;DHT22;40578;53.178;5.846;2022-08-27T07:12:54;17.30;99.90
54680;DHT22;40578;53.178;5.846;2022-08-27T07:15:20;17.40;99.90
54680;DHT22;40578;53.178;5.846;2022-08-27T07:17:48;17.70;99.90
54680;DHT22;40578;53.178;5.846;2022-08-27T07:20:15;17.80;99.90
54680;DHT22;40578;53.178;5.846;2022-08-27T07:22:42;18.10;99.90
54680;DHT22;40578;53.178;5.846;2022-08-27T07:25:09;18.50;99.90
54680;DHT22;40578;53.178;5.846;2022-08-27T07:27:37;18.40;1.00
54680;DHT22;40578;53.178;5.846;2022-08-27T07:30:04;18.40;1.00
54680;DHT22;40578;53.178;5.846;2022-08-27T07:32:30;18.30;1.00
54680;DHT22;40578;53.178;5.846;2022-08-27T07:34:56;18.30;1.00
54680;DHT22;40578;53.178;5.846;2022-08-27T07:37:22;18.40;1.00
54680;DHT22;40578;53.178;5.846;2022-08-27T07:39:47;18.30;1.00
54680;DHT22;40578;53.178;5.846;2022-08-27T07:42:13;18.30;1.00
54680;DHT22;40578;53.178;5.846;2022-08-27T07:44:57;18.30;1.00
54680;DHT22;40578;53.178;5.846;2022-08-27T07:47:23;18.40;1.00
54680;DHT22;40578;53.178;5.846;2022-08-27T07:49:49;18.40;1.00
54680;DHT22;40578;53.178;5.846;2022-08-27T07:52:15;18.50;1.00
54680;DHT22;40578;53.178;5.846;2022-08-27T07:54:41;18.50;1.00
54680;DHT22;40578;53.178;5.846;2022-08-27T07:57:08;18.30;1.00
54680;DHT22;40578;53.178;5.846;2022-08-27T07:59:35;18.50;1.00
54680;DHT22;40578;53.178;5.846;2022-08-27T08:02:01;18.30;1.00
54680;DHT22;40578;53.178;5.846;2022-08-27T08:04:28;18.30;1.00
54680;DHT22;40578;53.178;5.846;2022-08-27T08:06:55;18.30;1.00
54680;DHT22;40578;53.178;5.846;2022-08-27T08:09:23;18.30;1.00
54680;DHT22;40578;53.178;5.846;2022-08-27T08:11:50;18.30;1.00
54680;DHT22;40578;53.178;5.846;2022-08-27T08:14:16;18.40;1.00
54680;DHT22;40578;53.178;5.846;2022-08-27T08:16:42;18.40;1.00
54680;DHT22;40578;53.178;5.846;2022-08-27T08:19:08;18.40;1.00
54680;DHT22;40578;53.178;5.846;2022-08-27T08:21:34;18.50;1.00
54680;DHT22;40578;53.178;5.846;2022-08-27T08:24:00;18.40;1.00
54680;DHT22;40578;53.178;5.846;2022-08-27T08:26:27;18.30;1.00
54680;DHT22;40578;53.178;5.846;2022-08-27T08:28:53;18.40;1.00
54680;DHT22;40578;53.178;5.846;2022-08-27T08:31:20;18.50;1.00
54680;DHT22;40578;53.178;5.846;2022-08-27T08:33:45;18.60;1.00
54680;DHT22;40578;53.178;5.846;2022-08-27T08:36:14;18.80;99.90
54680;DHT22;40578;53.178;5.846;2022-08-27T08:38:41;18.90;99.90
54680;DHT22;40578;53.178;5.846;2022-08-27T08:43:58;19.00;99.90
54680;DHT22;40578;53.178;5.846;2022-08-27T08:46:36;19.00;99.90
54680;DHT22;40578;53.178;5.846;2022-08-27T08:49:48;18.90;1.00
54680;DHT22;40578;53.178;5.846;2022-08-27T08:52:24;18.90;1.00
54680;DHT22;40578;53.178;5.846;2022-08-27T08:54:55;18.80;1.00
54680;DHT22;40578;53.178;5.846;2022-08-27T08:57:27;18.90;99.90
54680;DHT22;40578;53.178;5.846;2022-08-27T09:00:05;18.90;1.00
54680;DHT22;40578;53.178;5.846;2022-08-27T09:02:37;18.90;1.00
54680;DHT22;40578;53.178;5.846;2022-08-27T09:05:05;18.80;1.00
54680;DHT22;40578;53.178;5.846;2022-08-27T09:07:37;18.80;99.90
54680;DHT22;40578;53.178;5.846;2022-08-27T09:10:26;18.80;1.00
54680;DHT22;40578;53.178;5.846;2022-08-27T09:12:57;18.60;99.90
54680;DHT22;40578;53.178;5.846;2022-08-27T09:15:28;18.80;1.00
54680;DHT22;40578;53.178;5.846;2022-08-27T09:18:11;19.10;99.90
54680;DHT22;40578;53.178;5.846;2022-08-27T09:20:38;19.20;99.90
54680;DHT22;40578;53.178;5.846;2022-08-27T09:23:29;19.30;99.90
54680;DHT22;40578;53.178;5.846;2022-08-27T09:25:56;19.20;99.90
54680;DHT22;40578;53.178;5.846;2022-08-27T09:28:27;19.20;99.90
54680;DHT22;40578;53.178;5.846;2022-08-27T09:31:15;19.20;99.90
54680;DHT22;40578;53.178;5.846;2022-08-27T09:33:41;19.20;99.90
54680;DHT22;40578;53.178;5.846;2022-08-27T09:36:13;19.20;99.90
54680;DHT22;40578;53.178;5.846;2022-08-27T09:39:03;19.20;99.90
54680;DHT22;40578;53.178;5.846;2022-08-27T09:41:34;19.40;99.90
54680;DHT22;40578;53.178;5.846;2022-08-27T09:44:12;19.50;1.00
54680;DHT22;40578;53.178;5.846;2022-08-27T09:46:38;19.40;99.90
54680;DHT22;40578;53.178;5.846;2022-08-27T09:49:16;19.40;99.90
54680;DHT22;40578;53.178;5.846;2022-08-27T09:51:44;19.30;99.90
54680;DHT22;40578;53.178;5.846;2022-08-27T09:54:11;19.30;99.90
54680;DHT22;40578;53.178;5.846;2022-08-27T09:56:47;19.40;99.90
54680;DHT22;40578;53.178;5.846;2022-08-27T09:59:26;19.50;99.90
54680;DHT22;40578;53.178;5.846;2022-08-27T10:02:17;19.70;99.90
54680;DHT22;40578;53.178;5.846;2022-08-27T10:04:47;19.90;99.90
54680;DHT22;40578;53.178;5.846;2022-08-27T10:12:58;19.90;99.40
54680;DHT22;40578;53.178;5.846;2022-08-27T10:15:34;20.10;26.50
54680;DHT22;40578;53.178;5.846;2022-08-27T10:18:15;20.30;39.70
54680;DHT22;40578;53.178;5.846;2022-08-27T10:21:01;20.40;76.40
54680;DHT22;40578;53.178;5.846;2022-08-27T10:23:40;20.50;14.50
54680;DHT22;40578;53.178;5.846;2022-08-27T10:26:26;20.40;21.40
54680;DHT22;40578;53.178;5.846;2022-08-27T10:29:07;20.40;99.90
54680;DHT22;40578;53.178;5.846;2022-08-27T10:31:51;20.40;99.90
54680;DHT22;40578;53.178;5.846;2022-08-27T10:34:33;20.30;99.90
54680;DHT22;40578;53.178;5.846;2022-08-27T10:37:27;20.30;99.90
54680;DHT22;40578;53.178;5.846;2022-08-27T10:48:08;20.20;99.90
54680;DHT22;40578;53.178;5.846;2022-08-27T10:56:00;20.20;99.90
54680;DHT22;40578;53.178;5.846;2022-08-27T11:01:35;20.70;99.90
54680;DHT22;40578;53.178;5.846;2022-08-27T11:04:08;20.80;99.90
54680;DHT22;40578;53.178;5.846;2022-08-27T11:06:45;20.80;99.90
54680;DHT22;40578;53.178;5.846;2022-08-27T11:09:19;20.80;85.80
54680;DHT22;40578;53.178;5.846;2022-08-27T11:11:54;20.70;99.90
54680;DHT22;40578;53.178;5.846;2022-08-27T11:17:04;21.00;99.90
54680;DHT22;40578;53.178;5.846;2022-08-27T11:19:56;21.00;70.00
54680;DHT22;40578;53.178;5.846;2022-08-27T11:22:33;20.80;1.00
54680;DHT22;40578;53.178;5.846;2022-08-27T11:27:32;20.80;39.20
54680;DHT22;40578;53.178;5.846;2022-08-27T11:30:05;20.90;94.10
54680;DHT22;40578;53.178;5.846;2022-08-27T11:33:23;21.10;24.00
54680;DHT22;40578;53.178;5.846;2022-08-27T11:38:35;21.10;1.00
54680;DHT22;40578;53.178;5.846;2022-08-27T11:44:07;21.40;1.00
54680;DHT22;40578;53.178;5.846;2022-08-27T11:46:48;21.50;1.00
54680;DHT22;40578;53.178;5.846;2022-08-27T11:49:42;21.60;1.00
54680;DHT22;40578;53.178;5.846;2022-08-27T11:52:08;21.30;1.00
54680;DHT22;40578;53.178;5.846;2022-08-27T11:54:49;21.30;1.00
54680;DHT22;40578;53.178;5.846;2022-08-27T11:57:26;21.30;1.00
54680;DHT22;40578;53.178;5.846;2022-08-27T11:59:52;21.30;99.90
54680;DHT22;40578;53.178;5.846;2022-08-27T12:02:27;21.40;1.00
54680;DHT22;40578;53.178;5.846;2022-08-27T12:07:51;21.20;99.90
54680;DHT22;40578;53.178;5.846;2022-08-27T12:18:55;21.50;1.00
54680;DHT22;40578;53.178;5.846;2022-08-27T12:27:00;21.50;1.00
54680;DHT22;40578;53.178;5.846;2022-08-27T12:32:24;21.70;99.90
54680;DHT22;40578;53.178;5.846;2022-08-27T12:34:58;21.70;99.90
54680;DHT22;40578;53.178;5.846;2022-08-27T12:37:27;21.60;99.90
54680;DHT22;40578;53.178;5.846;2022-08-27T12:39:56;21.40;1.00
54680;DHT22;40578;53.178;5.846;2022-08-27T12:42:23;21.50;1.00
54680;DHT22;40578;53.178;5.846;2022-08-27T12:44:56;21.70;1.00
54680;DHT22;40578;53.178;5.846;2022-08-27T12:47:22;21.80;1.00
54680;DHT22;40578;53.178;5.846;2022-08-27T12:49:53;21.80;1.00
54680;DHT22;40578;53.178;5.846;2022-08-27T12:54:57;21.70;1.00
54680;DHT22;40578;53.178;5.846;2022-08-27T13:00:15;21.40;1.00
54680;DHT22;40578;53.178;5.846;2022-08-27T13:05:39;21.10;1.00
54680;DHT22;40578;53.178;5.846;2022-08-27T13:10:48;21.40;1.00
54680;DHT22;40578;53.178;5.846;2022-08-27T13:13:18;21.40;1.00
54680;DHT22;40578;53.178;5.846;2022-08-27T13:15:47;21.30;1.00
54680;DHT22;40578;53.178;5.846;2022-08-27T13:18:14;21.10;1.00
54680;DHT22;40578;53.178;5.846;2022-08-27T13:20:40;21.20;1.00
54680;DHT22;40578;53.178;5.846;2022-08-27T13:23:26;21.20;1.00
54680;DHT22;40578;53.178;5.846;2022-08-27T13:26:07;21.10;1.00
54680;DHT22;40578;53.178;5.846;2022-08-27T13:28:35;21.00;1.00
54680;DHT22;40578;53.178;5.846;2022-08-27T13:31:01;21.10;1.00
54680;DHT22;40578;53.178;5.846;2022-08-27T13:33:31;21.30;1.00
54680;DHT22;40578;53.178;5.846;2022-08-27T13:35:58;21.50;1.00
54680;DHT22;40578;53.178;5.846;2022-08-27T13:38:28;21.60;99.90
54680;DHT22;40578;53.178;5.846;2022-08-27T13:41:06;21.30;99.90
54680;DHT22;40578;53.178;5.846;2022-08-27T13:43:44;21.30;1.00
54680;DHT22;40578;53.178;5.846;2022-08-27T13:46:18;21.30;99.90
54680;DHT22;40578;53.178;5.846;2022-08-27T13:48:47;21.30;99.90
54680;DHT22;40578;53.178;5.846;2022-08-27T13:51:14;21.40;99.90
54680;DHT22;40578;53.178;5.846;2022-08-27T13:53:47;21.50;99.90
54680;DHT22;40578;53.178;5.846;2022-08-27T13:56:38;21.60;99.90
54680;DHT22;40578;53.178;5.846;2022-08-27T13:59:13;21.40;99.90
54680;DHT22;40578;53.178;5.846;2022-08-27T14:01:54;21.20;99.90
54680;DHT22;40578;53.178;5.846;2022-08-27T14:04:23;21.10;99.90
54680;DHT22;40578;53.178;5.846;2022-08-27T14:06:49;21.10;99.90
54680;DHT22;40578;53.178;5.846;2022-08-27T14:09:23;21.10;99.90
54680;DHT22;40578;53.178;5.846;2022-08-27T14:12:01;21.20;99.90
54680;DHT22;40578;53.178;5.846;2022-08-27T14:14:28;21.30;99.90
54680;DHT22;40578;53.178;5.846;2022-08-27T14:16:59;21.20;99.90
54680;DHT22;40578;53.178;5.846;2022-08-27T14:19:31;21.10;1.00
54680;DHT22;40578;53.178;5.846;2022-08-27T14:21:57;21.40;1.00
54680;DHT22;40578;53.178;5.846;2022-08-27T14:24:24;21.40;1.00
54680;DHT22;40578;53.178;5.846;2022-08-27T14:26:52;21.30;1.00
54680;DHT22;40578;53.178;5.846;2022-08-27T14:29:18;21.30;1.00
54680;DHT22;40578;53.178;5.846;2022-08-27T14:31:44;21.10;1.00
54680;DHT22;40578;53.178;5.846;2022-08-27T14:34:10;21.00;1.00
54680;DHT22;40578;53.178;5.846;2022-08-27T14:36:38;21.30;1.00
54680;DHT22;40578;53.178;5.846;2022-08-27T14:39:04;21.40;1.00
54680;DHT22;40578;53.178;5.846;2022-08-27T14:41:30;21.40;99.90
54680;DHT22;40578;53.178;5.846;2022-08-27T14:43:55;21.20;99.90
54680;DHT22;40578;53.178;5.846;2022-08-27T14:46:27;21.20;99.90
54680;DHT22;40578;53.178;5.846;2022-08-27T14:48:54;21.20;1.00
54680;DHT22;40578;53.178;5.846;2022-08-27T14:51:29;21.00;1.00
54680;DHT22;40578;53.178;5.846;2022-08-27T14:53:55;21.10;1.00
54680;DHT22;40578;53.178;5.846;2022-08-27T14:56:22;21.10;99.90
54680;DHT22;40578;53.178;5.846;2022-08-27T14:58:47;21.00;99.90
54680;DHT22;40578;53.178;5.846;2022-08-27T15:01:14;21.00;1.00
54680;DHT22;40578;53.178;5.846;2022-08-27T15:03:45;21.10;1.00
54680;DHT22;40578;53.178;5.846;2022-08-27T15:06:12;21.30;99.90
54680;DHT22;40578;53.178;5.846;2022-08-27T15:08:38;21.30;99.90
54680;DHT22;40578;53.178;5.846;2022-08-27T15:11:04;21.20;99.90
54680;DHT22;40578;53.178;5.846;2022-08-27T15:13:30;21.00;99.90
54680;DHT22;40578;53.178;5.846;2022-08-27T15:15:56;20.70;99.90
54680;DHT22;40578;53.178;5.846;2022-08-27T15:18:22;20.60;99.90
54680;DHT22;40578;53.178;5.846;2022-08-27T15:20:48;20.70;1.00
54680;DHT22;40578;53.178;5.846;2022-08-27T15:23:14;20.60;1.00
54680;DHT22;40578;53.178;5.846;2022-08-27T15:25:43;20.40;1.00
54680;DHT22;40578;53.178;5.846;2022-08-27T15:28:09;20.20;1.00
54680;DHT22;40578;53.178;5.846;2022-08-27T15:30:34;20.40;1.00
54680;DHT22;40578;53.178;5.846;2022-08-27T15:33:03;20.30;1.00
54680;DHT22;40578;53.178;5.846;2022-08-27T15:35:29;20.30;1.00
54680;DHT22;40578;53.178;5.846;2022-08-27T15:37:56;20.30;1.00
54680;DHT22;40578;53.178;5.846;2022-08-27T15:40:24;20.10;1.00
54680;DHT22;40578;53.178;5.846;2022-08-27T15:43:00;20.20;1.00
54680;DHT22;40578;53.178;5.846;2022-08-27T15:45:27;20.40;1.00
54680;DHT22;40578;53.178;5.846;2022-08-27T15:47:54;20.60;1.00
54680;DHT22;40578;53.178;5.846;2022-08-27T15:50:20;20.80;1.00
54680;DHT22;40578;53.178;5.846;2022-08-27T15:52:47;21.00;1.00
54680;DHT22;40578;53.178;5.846;2022-08-27T15:55:25;20.90;99.90
54680;DHT22;40578;53.178;5.846;2022-08-27T15:57:51;20.90;99.90
54680;DHT22;40578;53.178;5.846;2022-08-27T16:00:17;20.90;1.00
54680;DHT22;40578;53.178;5.846;2022-08-27T16:02:44;20.70;1.00
54680;DHT22;40578;53.178;5.846;2022-08-27T16:05:11;20.40;1.00
54680;DHT22;40578;53.178;5.846;2022-08-27T16:07:38;20.20;1.00
54680;DHT22;40578;53.178;5.846;2022-08-27T16:10:05;20.30;1.00
54680;DHT22;40578;53.178;5.846;2022-08-27T16:12:31;20.40;1.00
54680;DHT22;40578;53.178;5.846;2022-08-27T16:14:56;20.60;1.00
54680;DHT22;40578;53.178;5.846;2022-08-27T16:17:22;20.50;1.00
54680;DHT22;40578;53.178;5.846;2022-08-27T16:19:49;20.30;1.00
54680;DHT22;40578;53.178;5.846;2022-08-27T16:22:14;20.40;1.00
54680;DHT22;40578;53.178;5.846;2022-08-27T16:24:40;20.40;1.00
54680;DHT22;40578;53.178;5.846;2022-08-27T16:27:06;20.50;1.00
54680;DHT22;40578;53.178;5.846;2022-08-27T16:29:32;20.40;1.00
54680;DHT22;40578;53.178;5.846;2022-08-27T16:31:57;20.50;1.00
54680;DHT22;40578;53.178;5.846;2022-08-27T16:34:25;20.50;1.00
54680;DHT22;40578;53.178;5.846;2022-08-27T16:36:52;20.50;1.00
54680;DHT22;40578;53.178;5.846;2022-08-27T16:39:18;20.70;1.00
54680;DHT22;40578;53.178;5.846;2022-08-27T16:41:44;20.70;1.00
54680;DHT22;40578;53.178;5.846;2022-08-27T16:44:10;20.60;1.00
54680;DHT22;40578;53.178;5.846;2022-08-27T16:46:36;20.40;1.00
54680;DHT22;40578;53.178;5.846;2022-08-27T16:49:02;20.20;1.00
54680;DHT22;40578;53.178;5.846;2022-08-27T16:51:46;20.00;1.00
54680;DHT22;40578;53.178;5.846;2022-08-27T16:54:13;20.00;1.00
54680;DHT22;40578;53.178;5.846;2022-08-27T16:56:41;19.80;1.00
54680;DHT22;40578;53.178;5.846;2022-08-27T16:59:08;19.70;1.00